METAR / TAF

Die METAR- und TAF-Liste ist aus technischen Gründen (Verfügbarkeit, Update-Zyklen) nicht für ein Meteo-Briefing gedacht. Benutzen Sie stattdessen skybriefing der Skyguide  oder das TAMSI (MeteoSchweiz-eigene Meteo Selfbriefing-Plattform für Firmen aus der Aviatik; Anfragen über das

Kontaktformular

METAR Schweiz

METAR     LSZH 231150Z VRB02KT 2600 BR BKN006 M06/M07 Q1023 TEMPO
               3000=
METAR     LSZH 231220Z VRB02KT 2800 BR BKN006 M06/M07 Q1023 TEMPO
               3000=
METAR     LSGG 231150Z VRB02KT 4000 BR OVC007 M02/M03 Q1022 NOSIG=
METAR     LSGG 231220Z VRB02KT 4000 BR OVC007 M01/M03 Q1022 NOSIG=
METAR     LFSB 231230Z VRB03KT 4000 BR OVC006 M06/M07 Q1024 NOSIG=
METAR     LSZB 231150Z VRB02KT 2500 BR BKN002 BKN008 M06/M07 Q1022
               NOSIG=
METAR     LSZB 231220Z 00000KT 2500 BR BKN002 BKN008 M06/M07 Q1021
               NOSIG=
METAR     LSZA 231150Z VRB01KT CAVOK 07/M06 Q1022 NOSIG=
METAR     LSZA 231220Z VRB02KT CAVOK 07/M07 Q1021 NOSIG=
METAR     LSZG 231150Z 03003KT 2500 BR OVC004 M07/M07 Q1023 NOSIG=
METAR     LSZG 231220Z VRB02KT 3300 BR OVC004 M07/M07 Q1023 NOSIG=
METAR     LSZR 231150Z 08005KT 2000 BR OVC003 M06/M06 Q1023 NOSIG
               RMK H=
METAR     LSZR 231220Z 08005KT 2000 BR OVC003 M06/M06 Q1023 NOSIG
               RMK H=
METAR     LSGS 231150Z 24006KT 9000 NSC 00/M06 Q1021=
METAR     LSGS 231220Z 24007KT 9000 NSC 01/M06 Q1020=
METAR     LSGC 231150Z VRB01KT CAVOK M00/M08 Q1019=
METAR     LSGC 231220Z VRB02KT CAVOK 02/M09 Q1018=
METAR     LSZC 231150Z AUTO VRB07KT 3100 BR OVC003 M04/M04 Q1022=
METAR     LSZC 231220Z AUTO VRB06KT 3500 BR OVC004 M04/M04 Q1022=
METAR     LSZL 231150Z 00000KT CAVOK 06/M07 Q1023 RMK BLU=
METAR     LSZL 231220Z NIL=
METAR     LSZS 231150Z 00000KT CAVOK M10/M18 Q1018 RMK K=
METAR     LSZS 231220Z 00000KT CAVOK M07/M18 Q1017 RMK L=
METAR     LSMA 231150Z AUTO 19003KT 4400NDV -SN BKN004 OVC007
               M05/M05 Q1023 RMK=
METAR     LSMA NIL=
METAR     LSMD 231150Z 33003KT 290V040 2400 FZFG OVC004 M06/M07
               Q1023 RMK YLO=
METAR     LSMD NIL=
METAR     LSME NIL=
METAR     LSME NIL=
METAR     LSMM 231150Z AUTO 00000KT 0100NDV R10/0150N R28/0150N
               FZFG FEW002 M08/M08 Q1021 RMK=
METAR     LSMM NIL=
METAR     LSMP 231150Z VRB01KT 2000 BR OVC002 M07/M07 Q1023 RMK AMB=
METAR     LSMP NIL=
METAR     LSMS 231150Z 24006KT 9000 NSC 00/M06 Q1021=
METAR     LSMS NIL=
Aktualisiert am Montag, 23. Januar 2017, 13:41 Uhr

TAF Schweiz

TAF     LSZH 231125Z 2312/2418 34004KT 2500 BR BKN006 TXM05/2315Z
             TNM07/2405Z TXM04/2415Z BECMG 2312/2314 4000 BECMG
             2319/2322 OVC004 PROB40 2323/2406 2000 PROB30
             2401/2407 1200 BCFG BECMG 2410/2413 05004KT 6000 NSW
             OVC008 TEMPO 2411/2418 4000 -SN=
TAF     LSGG 231125Z 2312/2418 VRB01KT 4000 BR OVC007 TXM01/2314Z
             TNM03/2406Z TXM01/2414Z BECMG 2312/2315 6000 BKN012
             BECMG 2320/2323 3500 BR OVC008 BECMG 2409/2412
             04007KT BKN020=
TAF     LFSB 231100Z 2312/2412 04003KT 3500 BR OVC006 PROB30 TEMPO
             2312/2318 6000 NSW TEMPO 2320/2408 0300 FZFG VV///
             PROB40 TEMPO 2409/2412 6000 NSW BKN012=
TAF     LSGS 231125Z 2312/2321 VRB02KT CAVOK=
TAF     LSZA 231125Z 2312/2321 VRB03KT CAVOK=
TAF     LSZB 231125Z 2312/2321 VRB03KT 1400 BR VV003 BECMG
             2312/2314 2500 BR OVC005 PROB40 2313/2318 4000 PROB40
             2319/2321 0900 FZFG VV002=
TAF     LSZG 231125Z 2312/2321 VRB03KT 3000 BR OVC004 BECMG
             2312/2314 08007KT 6000 BKN006=
TAF     LSZL 231125Z 2312/2321 VRB03KT CAVOK=
TAF     LSZR 231125Z 2312/2321 10005KT 1800 BR OVC003 BECMG
             2312/2314 OVC006 PROB30 2314/2318 4000 BECMG
             2319/2321 OVC004=
TAF     LSGC 231125Z 2312/2321 VRB02KT CAVOK=
TAF     LSZC 231125Z 2312/2321 VRB03KT 4000 BR OVC005 PROB40
             2312/2318 6000=
TAF     LSZS 231125Z 2312/2321 VRB03KT CAVOK TXM03/2313Z=
TAF     LSMA 230925Z 2310/2416 VRB03KT 2500 BR OVC002 BECMG
             2310/2312 5000 BR OVC005 BECMG 2318/2321 05007KT=
TAF     LSMD 230925Z 2310/2416 VRB03KT 2000 BR OVC002 BECMG
             2310/2313 3500 BR OVC005=
TAF     LSME 230925Z 2310/2416 VRB03KT 0400 FZFG VV002 BECMG
             2310/2312 3500 BR OVC004=
TAF AAA LSMM 231219Z 2312/2416 VRB03KT 0200 FZFG VV001 BECMG
             2313/2315 1200 BCFG BKN002 BECMG 2400/2403 09007KT
             4000 BR OVC005=
TAF     LSMM 230925Z 2310/2416 VRB03KT 0200 FZFG VV001 BECMG
             2310/2312 1200 BCFG BKN002 PROB40 2312/2320 4000 BR
             BECMG 2400/2403 09007KT 4000 BR OVC005=
TAF     LSMP 230925Z 2310/2416 VRB03KT 0500 FZFG VV001 BECMG
             2311/2313 2000 BR OVC003 BECMG 2313/2316 6000 BKN012
             BECMG 2320/2323 2000 BR OVC005 BECMG 2411/2414
             03007KT 9999 BKN020=
TAF     LSMS 221625Z 2217/2323 VRB03KT 9999 FEW150 SCT200 BECMG
             2304/2308 CAVOK=
Aktualisiert am Montag, 23. Januar 2017, 13:37 Uhr